Time;durP1;ratioP1;P1;durP2;ratioP2;P2;SDS_P1;SDS_P2;PMS_P1;PMS_P2;Temp;Humidity;BMP_temperature;BMP_pressure;BME280_temperature;BME280_humidity;BME280_pressure;Samples;Min_cycle;Max_cycle;Signal;HPM_P1;HPM_P2
2022/08/25 00:00:47;;;;;;;13.38;4.22;;;;;;;21.83;72.41;101871.13;5071214;28;20085;-71
2022/08/25 00:03:13;;;;;;;8.50;3.53;;;;;;;21.80;72.64;101866.91;5069959;28;20048;-71
2022/08/25 00:05:38;;;;;;;9.45;3.80;;;;;;;21.61;73.03;101862.19;5069255;28;20469;-71
2022/08/25 00:08:05;;;;;;;11.95;3.97;;;;;;;21.68;72.81;101863.88;5069272;28;20119;-71
2022/08/25 00:10:34;;;;;;;11.85;3.92;;;;;;;21.61;73.33;101863.03;5051838;28;20024;-71
2022/08/25 00:13:00;;;;;;;6.63;4.15;;;;;;;21.72;72.83;101864.34;5049249;28;20411;-71
2022/08/25 00:15:27;;;;;;;15.00;4.47;;;;;;;21.70;73.30;101865.59;5051138;28;20027;-71
2022/08/25 00:17:52;;;;;;;12.63;4.35;;;;;;;21.44;74.19;101861.69;5049240;28;20170;-71
2022/08/25 00:20:18;;;;;;;10.45;3.65;;;;;;;21.58;73.40;101862.56;5050553;28;20119;-71
2022/08/25 00:22:44;;;;;;;11.32;3.88;;;;;;;21.66;73.40;101859.66;5056465;28;20089;-71
2022/08/25 00:25:10;;;;;;;12.00;4.13;;;;;;;21.59;73.57;101858.78;5029677;28;20026;-71
2022/08/25 00:27:35;;;;;;;9.38;4.38;;;;;;;21.65;73.59;101866.22;5029426;28;20021;-71
2022/08/25 00:30:00;;;;;;;11.48;4.30;;;;;;;21.69;73.21;101859.22;5030081;28;20021;-71
2022/08/25 00:32:26;;;;;;;12.98;4.10;;;;;;;21.30;74.88;101860.78;5030459;28;20025;-71
2022/08/25 00:34:52;;;;;;;12.63;4.68;;;;;;;21.33;74.94;101854.88;5029340;28;20036;-71
2022/08/25 00:37:18;;;;;;;9.43;4.80;;;;;;;21.30;75.04;101855.25;5030275;28;20021;-71
2022/08/25 00:39:44;;;;;;;10.82;4.45;;;;;;;21.37;74.55;101856.13;5030662;28;20083;-71
2022/08/25 00:42:11;;;;;;;8.07;4.50;;;;;;;21.39;74.51;101864.22;5028932;28;20551;-71
2022/08/25 00:44:36;;;;;;;10.27;4.40;;;;;;;21.44;74.20;101866.34;5029584;28;20057;-71
2022/08/25 00:47:04;;;;;;;13.73;5.13;;;;;;;21.35;74.64;101858.25;5028724;28;20060;-71
2022/08/25 00:49:37;;;;;;;10.13;4.85;;;;;;;21.18;75.70;101851.34;5036289;28;20029;-71
2022/08/25 00:52:21;;;;;;;12.40;4.80;;;;;;;21.19;75.51;101855.84;5042827;28;20553;-71
2022/08/25 00:54:51;;;;;;;12.10;4.75;;;;;;;21.36;74.70;101851.69;5044983;28;20016;-71
2022/08/25 00:57:23;;;;;;;10.00;5.07;;;;;;;21.15;76.02;101857.28;5048629;28;20021;-71
2022/08/25 00:59:49;;;;;;;12.02;4.90;;;;;;;21.17;75.67;101852.41;5049914;28;20071;-71
2022/08/25 01:02:15;;;;;;;12.70;4.82;;;;;;;21.09;75.92;101852.59;5050196;28;20025;-71
2022/08/25 01:04:42;;;;;;;11.82;4.78;;;;;;;21.14;75.97;101850.94;5050131;28;20504;-71
2022/08/25 01:07:07;;;;;;;11.23;4.90;;;;;;;21.03;76.42;101853.41;5050045;28;20028;-70
2022/08/25 01:09:33;;;;;;;12.77;5.05;;;;;;;20.92;76.91;101856.72;5048635;28;20021;-71
2022/08/25 01:12:00;;;;;;;10.88;4.30;;;;;;;20.97;76.62;101855.06;5048578;28;20024;-72
2022/08/25 01:14:27;;;;;;;14.00;5.50;;;;;;;20.88;77.04;101860.94;5049016;28;20128;-71
2022/08/25 01:16:54;;;;;;;10.10;4.63;;;;;;;21.11;76.15;101861.50;5048285;28;20063;-72
2022/08/25 01:19:20;;;;;;;10.82;4.90;;;;;;;20.88;77.10;101863.72;5048428;28;20078;-71
2022/08/25 01:21:48;;;;;;;9.55;4.57;;;;;;;20.82;77.36;101857.94;5048751;28;20021;-70
2022/08/25 01:24:33;;;;;;;9.45;5.07;;;;;;;20.96;76.83;101858.88;5044760;28;20132;-70
2022/08/25 01:26:58;;;;;;;15.10;5.25;;;;;;;20.89;77.05;101851.63;5053734;28;20058;-70
2022/08/25 01:29:24;;;;;;;18.13;4.63;;;;;;;20.93;76.80;101858.41;5053386;28;20136;-70
2022/08/25 01:32:02;;;;;;;13.50;5.15;;;;;;;20.90;76.97;101854.19;5052414;28;20385;-70
2022/08/25 01:34:30;;;;;;;9.95;5.13;;;;;;;20.89;77.37;101854.38;5052792;28;20025;-70
2022/08/25 01:36:57;;;;;;;10.35;5.57;;;;;;;20.79;77.74;101868.50;5052649;28;20028;-71
2022/08/25 01:39:23;;;;;;;7.82;4.70;;;;;;;20.89;77.08;101858.00;5052445;28;20025;-71
2022/08/25 01:41:57;;;;;;;11.15;4.20;;;;;;;20.83;77.08;101873.41;5053512;28;20017;-71
2022/08/25 01:44:23;;;;;;;8.80;4.78;;;;;;;20.84;76.85;101860.50;5054029;28;20033;-71
2022/08/25 01:46:50;;;;;;;11.43;5.05;;;;;;;20.74;77.67;101858.13;5053323;28;20100;-71
2022/08/25 01:49:15;;;;;;;12.57;4.97;;;;;;;20.58;78.68;101855.66;5053235;28;20052;-70
2022/08/25 01:51:51;;;;;;;12.38;4.93;;;;;;;20.55;78.61;101861.56;5051823;28;20041;-71
2022/08/25 01:54:17;;;;;;;6.72;4.63;;;;;;;20.54;78.91;101862.63;5064429;28;20016;-71
2022/08/25 01:56:42;;;;;;;14.18;4.85;;;;;;;20.47;78.96;101869.94;5072291;28;20028;-70
2022/08/25 01:59:08;;;;;;;18.08;4.72;;;;;;;20.57;78.82;101859.47;5072920;28;20081;-71
2022/08/25 02:01:34;;;;;;;13.98;5.88;;;;;;;20.64;78.08;101865.88;5072864;28;20652;-71
2022/08/25 02:04:00;;;;;;;10.57;5.13;;;;;;;20.59;78.17;101858.19;5072038;28;20033;-71
2022/08/25 02:06:28;;;;;;;13.75;5.65;;;;;;;20.52;78.63;101867.47;5071501;28;20059;-71
2022/08/25 02:08:57;;;;;;;10.98;5.30;;;;;;;20.48;78.62;101864.28;5070915;28;20077;-71
2022/08/25 02:11:24;;;;;;;15.85;5.45;;;;;;;20.37;79.40;101858.44;5072798;28;20024;-70
2022/08/25 02:13:54;;;;;;;10.02;5.15;;;;;;;20.29;79.85;101867.69;5071920;28;20405;-71
2022/08/25 02:16:27;;;;;;;19.23;5.80;;;;;;;20.30;79.84;101875.72;5071820;28;20161;-71
2022/08/25 02:18:54;;;;;;;12.05;5.45;;;;;;;20.30;79.65;101872.97;5071678;28;20033;-70
2022/08/25 02:21:19;;;;;;;14.27;6.05;;;;;;;20.38;79.51;101876.63;5068198;28;20025;-71
2022/08/25 02:23:45;;;;;;;13.13;5.55;;;;;;;20.51;78.69;101866.63;5061044;28;20049;-71
2022/08/25 02:26:11;;;;;;;10.45;5.22;;;;;;;20.48;78.65;101871.69;5061291;28;20371;-70
2022/08/25 02:28:36;;;;;;;16.55;6.57;;;;;;;20.21;80.05;101871.41;5051922;28;20159;-71
2022/08/25 02:31:04;;;;;;;10.80;5.40;;;;;;;20.28;79.80;101872.31;5052268;28;20036;-70
2022/08/25 02:33:29;;;;;;;15.45;5.53;;;;;;;20.11;80.73;101865.38;5053332;28;20048;-71
2022/08/25 02:35:59;;;;;;;9.23;5.05;;;;;;;20.17;80.33;101859.09;5052852;28;20126;-71
2022/08/25 02:38:26;;;;;;;14.30;5.88;;;;;;;20.08;80.54;101865.75;5051354;28;20020;-71
2022/08/25 02:40:53;;;;;;;14.15;6.05;;;;;;;19.96;81.14;101862.72;5051704;28;20032;-71
2022/08/25 02:43:18;;;;;;;11.77;5.53;;;;;;;20.06;80.86;101867.88;5052897;28;20047;-71
2022/08/25 02:45:44;;;;;;;12.32;5.60;;;;;;;20.01;80.83;101864.84;5052469;28;20021;-71
2022/08/25 02:48:09;;;;;;;14.23;6.05;;;;;;;20.06;80.66;101865.13;5052426;28;20021;-71
2022/08/25 02:50:34;;;;;;;11.05;5.68;;;;;;;20.00;80.78;101863.16;5050818;28;20017;-71
2022/08/25 02:53:00;;;;;;;12.35;5.70;;;;;;;20.02;80.76;101861.09;5051087;28;20589;-70
2022/08/25 02:55:25;;;;;;;12.57;6.40;;;;;;;20.01;80.86;101864.84;5051135;28;20028;-71
2022/08/25 02:57:50;;;;;;;17.60;5.45;;;;;;;19.92;81.27;101855.03;5050941;28;20025;-71
2022/08/25 03:00:17;;;;;;;8.40;5.53;;;;;;;20.06;80.38;101845.88;5052139;28;20024;-71
2022/08/25 03:02:43;;;;;;;14.32;5.88;;;;;;;19.96;80.98;101845.38;5051108;28;20029;-71
2022/08/25 03:05:10;;;;;;;9.85;5.75;;;;;;;19.99;80.94;101842.22;5051289;28;20021;-71
2022/08/25 03:07:37;;;;;;;10.68;5.95;;;;;;;20.04;80.95;101848.84;5050736;28;20112;-71
2022/08/25 03:10:13;;;;;;;11.77;5.60;;;;;;;20.10;80.38;101841.69;5050914;28;20029;-71
2022/08/25 03:12:40;;;;;;;9.50;5.60;;;;;;;19.90;80.98;101846.16;5050779;28;20163;-71
2022/08/25 03:15:07;;;;;;;13.35;6.05;;;;;;;19.95;80.59;101844.53;5052470;28;20025;-71
2022/08/25 03:17:33;;;;;;;12.48;6.47;;;;;;;19.91;81.05;101847.84;5050684;28;20017;-71
2022/08/25 03:19:58;;;;;;;9.95;6.07;;;;;;;19.88;80.88;101842.72;5050526;28;20166;-71
2022/08/25 03:22:23;;;;;;;13.95;6.57;;;;;;;19.85;81.15;101843.97;5055483;28;20024;-71
2022/08/25 03:24:49;;;;;;;11.68;5.95;;;;;;;19.83;81.26;101845.25;5055483;28;20052;-71
2022/08/25 03:27:14;;;;;;;11.88;7.00;;;;;;;19.79;81.49;101840.13;5051822;28;20033;-71
2022/08/25 03:29:42;;;;;;;14.82;6.28;;;;;;;19.62;82.13;101849.63;5051254;28;20032;-71
2022/08/25 03:32:08;;;;;;;9.95;6.53;;;;;;;19.74;81.42;101834.34;5050709;28;20021;-71
2022/08/25 03:34:33;;;;;;;10.55;5.82;;;;;;;19.69;81.80;101839.59;5051661;28;20053;-71
2022/08/25 03:36:59;;;;;;;10.60;6.93;;;;;;;19.78;81.28;101832.91;5050718;28;20041;-70
2022/08/25 03:39:26;;;;;;;13.60;5.85;;;;;;;19.63;81.74;101834.88;5050474;28;20070;-71
2022/08/25 03:41:52;;;;;;;13.52;6.07;;;;;;;19.55;82.66;101839.59;5050277;28;20024;-71
2022/08/25 03:44:20;;;;;;;19.88;6.18;;;;;;;19.62;81.95;101835.91;5050302;28;20092;-71
2022/08/25 03:46:48;;;;;;;12.57;6.30;;;;;;;19.47;82.16;101835.91;5049814;28;20021;-71
2022/08/25 03:49:17;;;;;;;20.48;6.75;;;;;;;19.57;81.98;101841.13;5050118;28;20024;-71
2022/08/25 03:51:46;;;;;;;17.92;6.88;;;;;;;19.62;81.57;101830.41;5058284;28;20017;-70
2022/08/25 03:54:15;;;;;;;11.73;6.03;;;;;;;19.52;82.09;101832.59;5054717;28;20027;-71
2022/08/25 03:56:40;;;;;;;13.23;7.07;;;;;;;19.39;82.85;101832.44;5070065;28;20080;-71
2022/08/25 03:59:08;;;;;;;13.25;7.20;;;;;;;19.41;83.12;101842.19;5071108;28;20107;-71
2022/08/25 04:01:39;;;;;;;16.83;6.63;;;;;;;19.52;82.39;101843.59;5070023;28;20032;-71
2022/08/25 04:04:07;;;;;;;18.02;6.60;;;;;;;19.58;82.00;101831.88;5070470;28;20048;-71
2022/08/25 04:06:33;;;;;;;14.30;6.47;;;;;;;19.52;81.97;101836.19;5064940;28;20036;-71
2022/08/25 04:08:58;;;;;;;17.40;7.70;;;;;;;19.46;82.07;101839.72;5055053;28;20032;-71
2022/08/25 04:11:25;;;;;;;9.75;7.07;;;;;;;19.44;82.26;101829.97;5050694;28;20078;-71
2022/08/25 04:13:52;;;;;;;10.70;6.80;;;;;;;19.39;82.40;101832.44;5051220;28;20093;-71
2022/08/25 04:16:21;;;;;;;13.50;6.30;;;;;;;19.37;82.44;101834.53;5051006;28;20024;-71
2022/08/25 04:18:48;;;;;;;19.45;6.72;;;;;;;19.36;82.39;101832.81;5050890;28;20025;-71
2022/08/25 04:21:15;;;;;;;13.57;8.00;;;;;;;19.44;82.17;101844.56;5054071;28;20082;-71
2022/08/25 04:23:42;;;;;;;16.05;8.00;;;;;;;19.24;83.34;101837.97;5069758;28;20029;-70
2022/08/25 04:26:14;;;;;;;14.38;7.32;;;;;;;19.34;82.94;101840.41;5061431;28;20083;-71
2022/08/25 04:28:40;;;;;;;17.25;7.88;;;;;;;19.20;83.40;101834.75;5050734;28;20032;-71
2022/08/25 04:31:10;;;;;;;15.70;7.72;;;;;;;19.30;83.40;101833.59;5049141;28;20037;-71
2022/08/25 04:33:37;;;;;;;19.10;7.28;;;;;;;19.32;82.86;101831.53;5050687;28;20025;-72
2022/08/25 04:36:07;;;;;;;15.82;6.28;;;;;;;19.33;82.77;101838.72;5049360;28;20044;-72
2022/08/25 04:38:33;;;;;;;18.25;6.97;;;;;;;19.36;82.42;101849.28;5049171;28;20055;-72
2022/08/25 04:41:01;;;;;;;13.40;6.72;;;;;;;19.33;82.44;101856.03;5049093;28;20017;-71
2022/08/25 04:43:28;;;;;;;11.88;6.30;;;;;;;19.29;82.59;101842.88;5049447;28;20025;-71
2022/08/25 04:45:53;;;;;;;13.60;7.45;;;;;;;19.38;82.31;101841.72;5050762;28;20029;-72
2022/08/25 04:48:19;;;;;;;16.05;8.15;;;;;;;19.32;83.04;101848.84;5049672;28;20029;-71
2022/08/25 04:50:45;;;;;;;11.55;7.22;;;;;;;19.16;83.17;101844.41;5048768;28;20021;-71
2022/08/25 04:53:11;;;;;;;15.18;6.88;;;;;;;19.34;82.98;101852.25;5052795;28;20024;-71
2022/08/25 04:55:47;;;;;;;15.25;8.48;;;;;;;19.17;84.17;101846.13;5056486;28;20069;-73
2022/08/25 04:58:14;;;;;;;20.30;7.85;;;;;;;19.36;83.03;101843.81;5059036;28;20064;-71
2022/08/25 05:00:40;;;;;;;13.90;6.28;;;;;;;19.45;82.88;101848.16;5063439;28;20082;-71
2022/08/25 05:03:07;;;;;;;14.25;7.05;;;;;;;19.29;83.53;101848.38;5061487;28;20025;-71
2022/08/25 05:05:35;;;;;;;20.38;7.82;;;;;;;19.24;84.31;101854.44;5063733;28;20021;-71
2022/08/25 05:08:02;;;;;;;25.77;9.20;;;;;;;19.20;84.48;101851.22;5060810;28;20028;-71
2022/08/25 05:10:27;;;;;;;15.10;8.02;;;;;;;19.39;83.73;101848.94;5055814;28;20020;-71
2022/08/25 05:12:52;;;;;;;17.13;8.68;;;;;;;19.39;84.02;101854.41;5054230;28;20017;-72
2022/08/25 05:18:02;;;;;;;18.40;9.52;;;;;;;19.49;83.56;101838.47;5054193;28;20021;-71
2022/08/25 05:20:29;;;;;;;17.58;9.18;;;;;;;19.25;85.07;101842.41;5054055;28;20021;-71
2022/08/25 05:22:56;;;;;;;20.60;9.48;;;;;;;19.27;85.09;101834.84;5063462;28;20021;-72
2022/08/25 05:25:22;;;;;;;19.60;10.45;;;;;;;19.38;84.64;101836.25;5070496;28;20024;-72
2022/08/25 05:27:48;;;;;;;20.83;12.20;;;;;;;19.00;86.49;101833.63;5053195;28;20032;-72
2022/08/25 05:30:16;;;;;;;27.60;13.18;;;;;;;19.30;85.86;101837.22;5053031;28;20021;-71
2022/08/25 05:32:42;;;;;;;18.77;11.45;;;;;;;19.45;84.75;101831.69;5053360;28;20111;-71
2022/08/25 05:35:08;;;;;;;18.15;11.15;;;;;;;19.64;84.22;101836.56;5052500;28;20021;-71
2022/08/25 05:37:33;;;;;;;17.58;10.77;;;;;;;19.64;83.74;101831.09;5052421;28;20017;-71
2022/08/25 05:39:59;;;;;;;24.75;10.65;;;;;;;19.87;82.71;101841.03;5053889;28;20140;-72
2022/08/25 05:42:26;;;;;;;14.27;9.77;;;;;;;19.66;84.02;101834.47;5053195;28;20059;-72
2022/08/25 05:44:51;;;;;;;21.75;12.75;;;;;;;19.60;84.49;101829.75;5052565;28;20059;-71
2022/08/25 05:47:16;;;;;;;24.50;13.90;;;;;;;19.65;84.26;101832.78;5052621;28;20041;-72
2022/08/25 05:49:42;;;;;;;30.20;16.42;;;;;;;19.31;85.70;101829.81;5052356;28;20024;-71
2022/08/25 05:52:07;;;;;;;25.17;13.30;;;;;;;19.45;85.49;101839.91;5064702;28;20052;-71
2022/08/25 05:54:32;;;;;;;27.25;14.07;;;;;;;19.42;85.54;101843.88;5043657;28;20064;-71
2022/08/25 05:56:58;;;;;;;23.75;15.13;;;;;;;19.53;85.27;101845.28;5032399;28;20214;-71
2022/08/25 05:59:23;;;;;;;25.55;14.30;;;;;;;19.69;84.52;101845.09;5032179;28;20021;-72
2022/08/25 06:04:33;;;;;;;25.27;15.93;;;;;;;19.65;85.09;101838.28;5033619;28;20043;-72
2022/08/25 06:06:59;;;;;;;21.33;14.52;;;;;;;19.90;84.39;101849.75;5048898;28;20029;-72
2022/08/25 06:09:25;;;;;;;23.50;13.70;;;;;;;20.08;83.17;101849.25;5031660;28;20022;-72
2022/08/25 06:11:51;;;;;;;34.50;16.17;;;;;;;19.89;83.91;101845.31;5048692;28;20083;-70
2022/08/25 06:14:17;;;;;;;20.40;13.05;;;;;;;19.88;83.92;101831.72;5032390;28;20022;-70
2022/08/25 06:16:42;;;;;;;22.10;13.82;;;;;;;20.12;82.56;101839.59;5048678;28;20096;-71
2022/08/25 06:19:09;;;;;;;26.58;14.32;;;;;;;19.94;83.71;101836.44;5048603;28;20072;-70
2022/08/25 06:21:38;;;;;;;28.17;15.18;;;;;;;19.97;83.77;101833.31;5045182;28;20033;-71
2022/08/25 06:24:04;;;;;;;25.27;15.70;;;;;;;19.96;84.12;101828.88;5055238;28;20021;-72
2022/08/25 06:26:29;;;;;;;24.42;17.17;;;;;;;20.04;83.86;101815.84;5060010;28;20021;-71
2022/08/25 06:28:55;;;;;;;31.33;17.25;;;;;;;20.05;84.10;101827.69;5051807;28;20023;-71
2022/08/25 06:31:23;;;;;;;21.52;15.50;;;;;;;20.05;83.98;101823.03;5068033;28;20021;-72
2022/08/25 06:33:49;;;;;;;25.58;16.65;;;;;;;20.20;83.10;101831.19;5052022;28;20535;-71
2022/08/25 06:36:15;;;;;;;21.33;14.60;;;;;;;20.26;82.20;101835.91;5051305;28;20017;-71
2022/08/25 06:38:40;;;;;;;26.58;18.63;;;;;;;20.39;82.30;101826.06;5052804;28;20023;-71
2022/08/25 06:41:07;;;;;;;23.23;14.00;;;;;;;20.41;82.22;101826.69;5068331;28;20036;-71
2022/08/25 06:43:33;;;;;;;20.40;14.50;;;;;;;20.64;81.70;101838.34;5052514;28;20029;-72
2022/08/25 06:46:10;;;;;;;20.60;13.65;;;;;;;20.68;81.43;101834.16;5052760;28;20102;-72
2022/08/25 06:48:36;;;;;;;22.63;15.95;;;;;;;20.65;81.51;101822.69;5052656;28;20028;-72
2022/08/25 06:51:07;;;;;;;21.15;15.23;;;;;;;20.41;82.21;101832.19;5053194;28;20032;-70
2022/08/25 06:53:34;;;;;;;18.27;14.13;;;;;;;20.85;80.22;101835.50;5066358;28;20036;-71
2022/08/25 06:55:59;;;;;;;19.85;15.15;;;;;;;20.90;80.44;101831.31;5067935;28;20037;-71
2022/08/25 06:58:25;;;;;;;22.65;15.18;;;;;;;20.64;80.99;101843.84;5067719;28;20027;-71
2022/08/25 07:00:51;;;;;;;35.40;17.27;;;;;;;20.62;81.43;101840.47;5066869;28;20027;-71
2022/08/25 07:03:16;;;;;;;17.60;13.82;;;;;;;20.82;80.31;101841.44;5071571;28;20029;-71
2022/08/25 07:05:50;;;;;;;28.83;17.80;;;;;;;20.88;80.82;101849.94;5053888;28;20020;-72
2022/08/25 07:08:15;;;;;;;21.10;15.35;;;;;;;20.74;81.18;101852.63;5061799;28;20099;-71
2022/08/25 07:10:41;;;;;;;33.10;17.38;;;;;;;21.01;80.51;101858.28;5057692;28;20012;-72
2022/08/25 07:13:06;;;;;;;21.30;14.93;;;;;;;20.91;80.77;101844.00;5060997;28;20020;-71
2022/08/25 07:15:31;;;;;;;24.98;15.80;;;;;;;20.85;80.81;101857.53;5061742;28;20083;-73
2022/08/25 07:17:57;;;;;;;24.58;14.38;;;;;;;20.71;81.44;101855.75;5055796;28;20485;-71
2022/08/25 07:20:22;;;;;;;26.00;16.33;;;;;;;20.84;80.69;101855.84;5048375;28;20521;-71
2022/08/25 07:22:47;;;;;;;29.92;15.40;;;;;;;20.97;79.82;101848.72;5061817;28;20131;-71
2022/08/25 07:25:13;;;;;;;20.05;15.32;;;;;;;20.74;80.92;101849.84;5049894;28;20064;-71
2022/08/25 07:27:39;;;;;;;28.25;15.90;;;;;;;20.77;80.55;101846.69;5049223;28;20110;-72
2022/08/25 07:30:06;;;;;;;20.58;14.15;;;;;;;20.95;80.41;101853.59;5050245;28;20060;-71
2022/08/25 07:32:31;;;;;;;14.55;9.70;;;;;;;21.24;78.61;101845.03;5058582;28;20032;-72
2022/08/25 07:35:15;;;;;;;17.98;13.40;;;;;;;21.53;77.60;101845.84;5067915;28;20022;-71
2022/08/25 07:37:46;;;;;;;21.05;14.00;;;;;;;21.43;78.26;101842.59;5068127;28;20027;-71
2022/08/25 07:40:18;;;;;;;21.10;12.60;;;;;;;21.62;77.20;101841.81;5068914;28;20031;-71
2022/08/25 07:42:44;;;;;;;18.30;14.35;;;;;;;21.51;77.78;101845.16;5070264;28;20028;-71
2022/08/25 07:45:11;;;;;;;29.33;16.30;;;;;;;21.51;77.84;101842.41;5070892;28;20025;-71
2022/08/25 07:47:37;;;;;;;23.13;15.10;;;;;;;21.32;78.66;101841.28;5068473;28;20370;-70
2022/08/25 07:50:05;;;;;;;25.52;13.38;;;;;;;21.23;79.09;101857.09;5057846;28;20056;-70
2022/08/25 07:52:31;;;;;;;19.35;13.70;;;;;;;21.26;79.25;101853.97;5043237;28;20019;-71
2022/08/25 07:54:57;;;;;;;22.23;12.77;;;;;;;21.59;77.69;101856.03;5038467;28;20029;-72
2022/08/25 07:57:25;;;;;;;22.42;13.52;;;;;;;21.72;77.21;101850.56;5049030;28;20127;-71
2022/08/25 07:59:51;;;;;;;18.70;14.13;;;;;;;21.51;77.89;101850.69;5049047;28;20032;-71
2022/08/25 08:02:16;;;;;;;19.23;14.43;;;;;;;21.29;78.33;101855.47;5049722;28;20050;-71
2022/08/25 08:04:44;;;;;;;20.00;14.75;;;;;;;21.46;78.11;101853.22;5049791;28;20103;-72
2022/08/25 08:07:10;;;;;;;20.38;13.75;;;;;;;21.39;78.48;101854.06;5048966;28;20025;-71
2022/08/25 08:09:36;;;;;;;21.23;14.20;;;;;;;21.46;77.93;101847.72;5048379;28;20111;-71
2022/08/25 08:12:04;;;;;;;20.75;12.98;;;;;;;20.98;80.04;101845.75;5050622;28;20049;-71
2022/08/25 08:14:29;;;;;;;28.02;14.63;;;;;;;21.08;79.68;101848.16;5049923;28;20033;-71
2022/08/25 08:16:55;;;;;;;20.20;14.20;;;;;;;21.08;79.57;101845.38;5049379;28;20025;-71
2022/08/25 08:19:21;;;;;;;23.13;13.10;;;;;;;21.14;79.88;101845.41;5049987;28;20456;-71
2022/08/25 08:21:47;;;;;;;22.13;13.93;;;;;;;21.03;80.15;101847.91;5048134;28;20040;-70
2022/08/25 08:24:13;;;;;;;15.80;12.23;;;;;;;21.22;79.29;101847.16;5077322;28;20028;-71
2022/08/25 08:26:38;;;;;;;22.33;13.00;;;;;;;21.36;78.51;101843.44;5054201;28;20025;-71
2022/08/25 08:29:03;;;;;;;16.95;11.85;;;;;;;21.38;78.92;101834.94;5047890;28;20083;-71
2022/08/25 08:31:29;;;;;;;18.52;10.70;;;;;;;21.26;79.21;101845.69;5039376;28;20111;-72
2022/08/25 08:33:56;;;;;;;19.70;12.73;;;;;;;21.55;77.55;101846.47;5036626;28;20052;-71
2022/08/25 08:36:23;;;;;;;16.10;11.57;;;;;;;21.43;78.31;101842.59;5054964;28;20350;-71
2022/08/25 08:38:48;;;;;;;14.02;10.90;;;;;;;21.66;77.90;101837.59;5030683;28;20078;-71
2022/08/25 08:44:32;;;;;;;17.20;12.70;;;;;;;22.20;75.71;101833.88;5039736;28;20055;-71
2022/08/25 08:47:09;;;;;;;18.98;13.02;;;;;;;22.03;76.56;101827.88;5041360;28;20033;-71
2022/08/25 08:49:59;;;;;;;20.15;11.60;;;;;;;22.10;76.33;101842.56;5041377;28;20013;-70
2022/08/25 08:52:57;;;;;;;19.25;12.02;;;;;;;22.24;75.49;101848.97;5044698;28;20059;-71
2022/08/25 08:55:30;;;;;;;25.17;13.13;;;;;;;22.24;75.19;101846.22;5050026;28;20037;-71
2022/08/25 08:57:58;;;;;;;19.55;11.65;;;;;;;22.16;75.33;101843.63;5052700;28;20036;-71
2022/08/25 09:00:25;;;;;;;21.40;12.30;;;;;;;22.39;74.71;101843.22;5052439;28;20021;-70
2022/08/25 09:02:59;;;;;;;16.05;11.52;;;;;;;22.31;75.14;101835.16;5047866;28;20013;-70
2022/08/25 09:05:28;;;;;;;21.17;13.13;;;;;;;22.22;75.29;101837.28;5040599;28;20029;-70
2022/08/25 09:07:56;;;;;;;22.65;12.40;;;;;;;22.43;74.38;101828.78;5038329;28;20423;-71
2022/08/25 09:10:25;;;;;;;22.15;11.10;;;;;;;22.53;74.28;101838.53;5054637;28;20036;-70
2022/08/25 09:13:06;;;;;;;20.55;12.10;;;;;;;22.57;73.78;101823.25;5035253;28;20028;-71
2022/08/25 09:19:21;;;;;;;16.88;10.98;;;;;;;22.86;73.08;101828.31;5047012;28;20029;-71
2022/08/25 09:22:00;;;;;;;11.95;9.07;;;;;;;23.21;71.78;101826.09;4962531;28;20037;-71
2022/08/25 09:24:55;;;;;;;24.60;12.25;;;;;;;23.59;70.25;101818.88;5036419;28;20501;-70
2022/08/25 09:27:43;;;;;;;20.33;11.80;;;;;;;23.87;69.17;101807.47;5046561;28;20020;-73
2022/08/25 09:30:19;;;;;;;18.98;13.75;;;;;;;23.65;68.93;101809.72;5051601;28;20032;-71
2022/08/25 09:33:02;;;;;;;17.77;13.07;;;;;;;23.51;69.87;101808.91;5043900;28;20021;-71
2022/08/25 09:35:31;;;;;;;16.25;12.65;;;;;;;24.15;67.41;101804.25;5045270;28;20021;-71
2022/08/25 09:37:59;;;;;;;24.08;13.35;;;;;;;24.28;66.90;101804.16;5044657;28;20043;-72
2022/08/25 09:40:26;;;;;;;15.85;11.98;;;;;;;24.57;66.23;101809.00;5050183;28;20025;-71
2022/08/25 09:42:55;;;;;;;20.95;11.25;;;;;;;24.75;65.36;101810.09;5050248;28;20028;-72
2022/08/25 09:45:43;;;;;;;12.65;10.27;;;;;;;24.82;65.42;101805.31;5042380;28;20023;-71
2022/08/25 09:48:41;;;;;;;17.92;10.75;;;;;;;25.17;63.96;101795.34;5049026;28;20023;-72
2022/08/25 09:51:16;;;;;;;21.17;9.88;;;;;;;25.05;64.20;101783.34;5046275;28;20052;-72
2022/08/25 09:53:52;;;;;;;15.85;9.80;;;;;;;25.34;63.34;101780.84;5047571;28;20028;-72
2022/08/25 09:56:20;;;;;;;28.35;9.10;;;;;;;25.68;62.99;101782.88;5035137;28;20025;-72
2022/08/25 09:58:46;;;;;;;23.58;8.10;;;;;;;25.93;61.49;101773.56;5035923;28;20021;-73
2022/08/25 10:01:16;;;;;;;17.95;6.97;;;;;;;26.31;60.36;101764.81;5052138;28;20032;-72
2022/08/25 10:04:00;;;;;;;11.05;7.15;;;;;;;26.89;58.61;101765.84;5048170;28;20028;-72
2022/08/25 10:06:35;;;;;;;16.60;6.47;;;;;;;27.04;57.69;101757.81;5051679;28;20020;-72
2022/08/25 10:09:05;;;;;;;18.27;7.05;;;;;;;26.92;57.90;101748.69;5068980;28;20024;-72
2022/08/25 10:11:47;;;;;;;20.10;5.95;;;;;;;26.95;58.39;101748.19;5068674;28;20115;-72
2022/08/25 10:14:24;;;;;;;12.23;5.13;;;;;;;26.99;57.86;101743.81;5068171;28;20033;-73
2022/08/25 10:16:50;;;;;;;15.07;5.45;;;;;;;27.14;57.41;101735.84;5068720;28;20086;-72
2022/08/25 10:19:28;;;;;;;12.82;4.90;;;;;;;27.24;57.28;101741.59;5068826;28;20485;-72
2022/08/25 10:22:03;;;;;;;14.65;4.80;;;;;;;27.37;56.50;101734.88;5066362;28;20540;-72
2022/08/25 10:24:28;;;;;;;14.02;4.93;;;;;;;27.80;55.47;101734.31;5059419;28;20045;-72
2022/08/25 10:27:03;;;;;;;10.45;5.25;;;;;;;27.62;55.77;101726.16;5049216;28;20032;-72
2022/08/25 10:30:07;;;;;;;15.98;4.15;;;;;;;28.23;54.01;101721.59;5047991;28;20021;-72
2022/08/25 10:33:08;;;;;;;13.25;4.25;;;;;;;28.66;52.93;101731.19;5048189;28;20099;-72
2022/08/25 10:35:51;;;;;;;10.68;4.10;;;;;;;28.59;52.58;101730.53;5032959;28;20023;-72
2022/08/25 10:38:41;;;;;;;16.50;4.38;;;;;;;28.50;52.63;101732.94;5047822;28;20517;-71
2022/08/25 10:41:18;;;;;;;6.70;4.03;;;;;;;27.73;54.67;101722.50;5070917;28;20021;-72
2022/08/25 10:44:05;;;;;;;13.73;4.38;;;;;;;28.11;53.53;101718.09;5064709;28;20021;-72
2022/08/25 10:46:51;;;;;;;10.15;4.25;;;;;;;28.06;53.63;101715.25;5048949;28;20021;-73
2022/08/25 10:49:42;;;;;;;25.02;4.32;;;;;;;27.66;54.09;101699.53;5048971;28;20064;-72
2022/08/25 10:52:19;;;;;;;25.55;4.75;;;;;;;27.75;54.43;101700.81;5034188;28;20032;-72
2022/08/25 10:55:33;;;;;;;17.30;4.32;;;;;;;27.37;55.19;101697.88;5051464;28;20120;-72
2022/08/25 10:58:06;;;;;;;17.15;4.22;;;;;;;27.73;53.95;101689.09;5037327;28;20138;-72
2022/08/25 11:00:39;;;;;;;22.15;4.60;;;;;;;28.33;52.42;101693.94;5059396;28;20025;-73
2022/08/25 11:03:22;;;;;;;13.73;4.07;;;;;;;28.03;53.38;101687.88;5060380;28;20131;-73
2022/08/25 11:06:00;;;;;;;11.52;4.22;;;;;;;27.82;54.00;101687.56;5055793;28;20035;-74
2022/08/25 11:08:38;;;;;;;14.52;3.65;;;;;;;28.15;52.93;101685.84;5056986;28;20029;-73
2022/08/25 11:11:36;;;;;;;18.98;4.00;;;;;;;27.79;53.62;101676.97;5053342;28;20120;-73
2022/08/25 11:14:15;;;;;;;18.70;3.97;;;;;;;27.84;53.25;101668.69;5047487;28;20028;-73
2022/08/25 11:16:56;;;;;;;16.05;4.15;;;;;;;27.76;54.04;101671.88;5047465;28;20028;-72
2022/08/25 11:19:30;;;;;;;7.47;3.55;;;;;;;27.59;53.99;101665.47;5048651;28;20424;-72
2022/08/25 11:22:05;;;;;;;14.88;4.05;;;;;;;27.55;53.82;101661.50;5056888;28;20039;-73
2022/08/25 11:24:58;;;;;;;8.00;3.42;;;;;;;27.69;53.68;101660.09;5048764;28;20024;-72
2022/08/25 11:27:37;;;;;;;12.70;3.75;;;;;;;27.68;53.74;101652.84;5036378;28;20032;-73
2022/08/25 11:30:09;;;;;;;23.05;4.00;;;;;;;27.58;53.79;101647.06;5054950;28;20035;-74
2022/08/25 11:32:37;;;;;;;13.60;4.43;;;;;;;27.28;54.33;101659.34;5058868;28;20108;-73
2022/08/25 11:35:09;;;;;;;8.57;3.95;;;;;;;27.93;52.47;101654.34;5046669;28;20096;-73
2022/08/25 11:37:44;;;;;;;15.80;3.67;;;;;;;28.41;50.82;101656.44;5047163;28;20017;-72